createdAt,value
2019-04-14T00:00:49.656Z,3.42
2019-04-14T00:01:48.303Z,3.51
2019-04-14T00:02:49.297Z,3.45
2019-04-14T00:03:48.273Z,3.44
2019-04-14T00:04:48.898Z,3.52
2019-04-14T00:05:49.927Z,3.54
2019-04-14T00:06:48.495Z,3.61
2019-04-14T00:07:49.667Z,3.58
2019-04-14T00:08:48.301Z,3.61
2019-04-14T00:09:48.313Z,3.54
2019-04-14T00:10:48.861Z,3.56
2019-04-14T00:11:48.287Z,3.59
2019-04-14T00:12:49.468Z,3.63
2019-04-14T00:13:48.283Z,3.58
2019-04-14T00:14:49.307Z,3.61
2019-04-14T00:15:54.657Z,3.59
2019-04-14T00:16:49.183Z,3.63
2019-04-14T00:17:48.285Z,3.7
2019-04-14T00:18:49.196Z,3.69
2019-04-14T00:19:48.259Z,3.67
2019-04-14T00:20:49.307Z,3.7
2019-04-14T00:21:48.281Z,3.67
2019-04-14T00:22:49.234Z,3.65
2019-04-14T00:23:48.252Z,3.59
2019-04-14T00:24:49.131Z,3.62
2019-04-14T00:25:48.319Z,3.58
2019-04-14T00:26:48.949Z,3.55
2019-04-14T00:27:48.232Z,3.48
2019-04-14T00:28:49.280Z,3.37
2019-04-14T00:29:48.248Z,3.25
2019-04-14T00:30:49.278Z,3.29
2019-04-14T00:31:55.345Z,3.28
2019-04-14T00:32:48.981Z,3.28
2019-04-14T00:33:48.223Z,3.24
2019-04-14T00:34:48.684Z,3.34
2019-04-14T00:35:49.724Z,3.38
2019-04-14T00:36:48.542Z,3.44
2019-04-14T00:37:49.113Z,3.39
2019-04-14T00:38:48.220Z,3.35
2019-04-14T00:39:49.126Z,3.27
2019-04-14T00:40:48.241Z,3.24
2019-04-14T00:42:00.242Z,3.12
2019-04-14T00:42:49.659Z,3.15
2019-04-14T00:43:48.643Z,3.21
2019-04-14T00:44:49.703Z,3.17
2019-04-14T00:45:59.061Z,3.06
2019-04-14T00:46:49.703Z,3
2019-04-14T00:48:07.839Z,3.08
2019-04-14T00:48:49.891Z,3.1
2019-04-14T00:49:48.889Z,3.04
2019-04-14T00:50:49.671Z,3.07
2019-04-14T00:51:48.824Z,3
2019-04-14T00:52:48.250Z,3.14
2019-04-14T00:53:49.324Z,3.07
2019-04-14T00:54:48.203Z,3.11
2019-04-14T00:55:49.130Z,3.15
2019-04-14T00:56:48.197Z,3.2
2019-04-14T00:57:48.838Z,3.22
2019-04-14T00:58:48.275Z,3.2
2019-04-14T00:59:48.958Z,3.2
2019-04-14T01:00:51.416Z,3.24
2019-04-14T01:01:48.556Z,3.29
2019-04-14T01:02:49.473Z,3.27
2019-04-14T01:03:48.364Z,3.29
2019-04-14T01:04:49.234Z,3.34
2019-04-14T01:05:48.278Z,3.34
2019-04-14T01:06:49.104Z,3.35
2019-04-14T01:07:48.188Z,3.35
2019-04-14T01:08:49.128Z,3.25
2019-04-14T01:09:49.018Z,3.25
2019-04-14T01:10:48.201Z,3.25
2019-04-14T01:11:48.928Z,3.29
2019-04-14T01:12:48.175Z,3.32
2019-04-14T01:13:48.743Z,3.34
2019-04-14T01:14:49.667Z,3.35
2019-04-14T01:16:13.838Z,3.18
2019-04-14T01:16:49.592Z,3.12
2019-04-14T01:17:48.798Z,3.14
2019-04-14T01:18:49.501Z,3.2
2019-04-14T01:19:48.571Z,3.22
2019-04-14T01:20:49.403Z,3.28
2019-04-14T01:21:48.265Z,3.18
2019-04-14T01:22:48.998Z,3.17
2019-04-14T01:23:48.141Z,3.17
2019-04-14T01:24:49.119Z,3.17
2019-04-14T01:25:48.155Z,3.22
2019-04-14T01:26:48.617Z,3.08
2019-04-14T01:27:48.156Z,3.1
2019-04-14T01:28:48.556Z,3.2
2019-04-14T01:29:49.664Z,3.25
2019-04-14T01:30:48.134Z,3.32
2019-04-14T01:31:49.482Z,3.31
2019-04-14T01:32:48.193Z,3.35
2019-04-14T01:33:49.220Z,3.29
2019-04-14T01:34:55.456Z,3.2
2019-04-14T01:35:49.090Z,3.25
2019-04-14T01:36:48.193Z,3.18
2019-04-14T01:37:48.796Z,3.2
2019-04-14T01:38:49.355Z,3.21
2019-04-14T01:39:48.288Z,3.21
2019-04-14T01:40:49.017Z,3.21
2019-04-14T01:41:48.156Z,3.25
2019-04-14T01:42:48.726Z,3.28
2019-04-14T01:43:48.122Z,3.22
2019-04-14T01:44:48.237Z,3.21
2019-04-14T01:46:15.781Z,3.28
2019-04-14T01:46:48.147Z,3.29
2019-04-14T01:47:49.169Z,3.31
2019-04-14T01:48:48.110Z,3.22
2019-04-14T01:49:48.775Z,3.24
2019-04-14T01:50:48.114Z,3.25
2019-04-14T01:51:48.619Z,3.24
2019-04-14T01:52:48.127Z,3.21
2019-04-14T01:53:49.000Z,3.15
2019-04-14T01:54:49.605Z,3.15
2019-04-14T01:55:48.449Z,3.18
2019-04-14T01:56:49.334Z,3.15
2019-04-14T01:57:48.429Z,3.14
2019-04-14T01:58:49.243Z,3.2
2019-04-14T01:59:48.427Z,3.25
2019-04-14T02:00:51.382Z,3.24
2019-04-14T02:01:50.077Z,3.22
2019-04-14T02:02:48.857Z,3.31
2019-04-14T02:03:48.345Z,3.34
2019-04-14T02:04:48.693Z,3.35
2019-04-14T02:05:48.114Z,3.31
2019-04-14T02:06:48.577Z,3.35
2019-04-14T02:07:49.508Z,3.38
2019-04-14T02:08:48.154Z,3.32
2019-04-14T02:09:49.110Z,3.37
2019-04-14T02:10:48.139Z,3.37
2019-04-14T02:11:50.686Z,3.39
2019-04-14T02:12:48.086Z,3.42
2019-04-14T02:13:48.725Z,3.38
2019-04-14T02:14:49.593Z,3.29
2019-04-14T02:15:48.738Z,3.22
2019-04-14T02:16:59.372Z,3.24
2019-04-14T02:17:48.253Z,3.21
2019-04-14T02:18:55.572Z,3.2
2019-04-14T02:19:48.221Z,3.22
2019-04-14T02:20:49.286Z,3.21
2019-04-14T02:21:48.082Z,3.12
2019-04-14T02:22:48.602Z,3.12
2019-04-14T02:23:48.084Z,3.14
2019-04-14T02:24:48.284Z,3.07
2019-04-14T02:25:49.636Z,3
2019-04-14T02:26:48.148Z,3
2019-04-14T02:27:49.543Z,3.04
2019-04-14T02:28:48.393Z,2.96
2019-04-14T02:29:49.584Z,2.89
2019-04-14T02:31:29.532Z,2.94
2019-04-14T02:33:23.333Z,2.93
2019-04-14T02:34:47.476Z,2.92
2019-04-14T02:35:27.686Z,2.93
2019-04-14T02:37:19.043Z,2.8
2019-04-14T02:41:26.758Z,2.86
2019-04-14T02:43:37.361Z,2.92
2019-04-14T02:45:42.663Z,2.97
2019-04-14T02:46:19.826Z,2.99
2019-04-14T02:47:53.269Z,2.94
2019-04-14T02:50:10.672Z,2.94
2019-04-14T02:53:14.969Z,3.03
2019-04-14T02:54:35.869Z,3.01
2019-04-14T02:56:15.414Z,2.96
2019-04-14T02:57:16.544Z,3.01
2019-04-14T02:58:18.111Z,3
2019-04-14T02:59:26.440Z,2.97
2019-04-14T03:00:47.528Z,2.96
2019-04-14T03:04:18.529Z,2.83
2019-04-14T03:05:09.209Z,2.76
2019-04-14T03:06:32.880Z,2.72
2019-04-14T03:07:21.338Z,2.69
2019-04-14T03:08:23.412Z,2.73
2019-04-14T03:10:31.349Z,2.79
2019-04-14T03:11:24.229Z,2.83
2019-04-14T03:12:16.073Z,2.77
2019-04-14T03:13:20.611Z,2.72
2019-04-14T03:15:23.529Z,2.61
2019-04-14T03:16:29.151Z,2.62
2019-04-14T03:19:24.744Z,2.52
2019-04-14T03:20:13.424Z,2.55
2019-04-14T03:21:19.341Z,2.61
2019-04-14T03:22:19.586Z,2.61
2019-04-14T03:24:31.183Z,2.68
2019-04-14T03:25:09.174Z,2.64
2019-04-14T03:27:13.159Z,2.62
2019-04-14T03:28:17.145Z,2.62
2019-04-14T03:29:14.504Z,2.71
2019-04-14T03:30:32.558Z,2.68
2019-04-14T03:38:18.037Z,2.58
2019-04-14T03:39:23.094Z,2.58
2019-04-14T03:40:17.768Z,2.58
2019-04-14T03:41:36.500Z,2.62
2019-04-14T03:42:28.443Z,2.64
2019-04-14T03:44:40.981Z,2.65
2019-04-14T03:46:41.201Z,2.71
2019-04-14T03:47:30.446Z,2.59
2019-04-14T03:48:52.163Z,2.65
2019-04-14T03:49:13.687Z,2.66
2019-04-14T03:51:25.781Z,2.72
2019-04-14T03:52:21.491Z,2.75
2019-04-14T03:54:32.627Z,2.79
2019-04-14T03:54:56.261Z,2.77
2019-04-14T03:55:36.951Z,2.79
2019-04-14T03:56:07.045Z,2.79
2019-04-14T03:56:49.351Z,2.8
2019-04-14T03:57:47.947Z,2.79
2019-04-14T03:58:48.803Z,2.77
2019-04-14T03:59:47.947Z,2.79
2019-04-14T04:00:49.516Z,2.77
2019-04-14T04:01:48.062Z,2.82
2019-04-14T04:02:48.934Z,2.76
2019-04-14T04:03:47.969Z,2.83
2019-04-14T04:04:49.048Z,2.82
2019-04-14T04:05:47.986Z,2.8
2019-04-14T04:06:48.758Z,2.79
2019-04-14T04:07:47.969Z,2.72
2019-04-14T04:08:48.667Z,2.72
2019-04-14T04:09:47.952Z,2.69
2019-04-14T04:10:48.898Z,2.73
2019-04-14T04:11:47.951Z,2.72
2019-04-14T04:12:48.792Z,2.66
2019-04-14T04:13:47.923Z,2.58
2019-04-14T04:14:48.705Z,2.59
2019-04-14T04:15:47.933Z,2.65
2019-04-14T04:16:48.525Z,2.71
2019-04-14T04:17:47.911Z,2.62
2019-04-14T04:19:10.307Z,2.56
2019-04-14T04:19:49.285Z,2.59
2019-04-14T04:20:48.784Z,2.61
2019-04-14T04:21:48.957Z,2.62
2019-04-14T04:22:47.925Z,2.52
2019-04-14T04:23:49.071Z,2.56
2019-04-14T04:24:47.898Z,2.52
2019-04-14T04:25:48.879Z,2.49
2019-04-14T04:26:47.954Z,2.52
2019-04-14T04:27:48.543Z,2.52
2019-04-14T04:28:47.954Z,2.52
2019-04-14T04:29:48.599Z,2.51
2019-04-14T04:30:47.906Z,2.52
2019-04-14T04:31:48.407Z,2.49
2019-04-14T04:32:47.888Z,2.49
2019-04-14T04:33:48.008Z,2.47
2019-04-14T04:34:49.149Z,2.51
2019-04-14T04:35:48.024Z,2.52
2019-04-14T04:36:48.953Z,2.58
2019-04-14T04:37:47.942Z,2.58
2019-04-14T04:38:48.963Z,2.54
2019-04-14T04:39:47.926Z,2.55
2019-04-14T04:40:48.772Z,2.58
2019-04-14T04:41:47.899Z,2.56
2019-04-14T04:42:48.579Z,2.58
2019-04-14T04:43:47.886Z,2.55
2019-04-14T04:44:48.936Z,2.58
2019-04-14T04:45:47.903Z,2.62
2019-04-14T04:46:48.507Z,2.62
2019-04-14T04:47:49.328Z,2.64
2019-04-14T04:49:16.237Z,2.55
2019-04-14T04:49:49.146Z,2.45
2019-04-14T04:50:47.877Z,2.49
2019-04-14T04:51:48.853Z,2.47
2019-04-14T04:52:47.884Z,2.51
2019-04-14T04:53:48.578Z,2.58
2019-04-14T04:54:47.971Z,2.48
2019-04-14T04:55:48.206Z,2.49
2019-04-14T04:56:47.939Z,2.43
2019-04-14T04:57:48.250Z,2.37
2019-04-14T04:58:48.140Z,2.34
2019-04-14T04:59:47.835Z,2.41
2019-04-14T05:00:55.942Z,2.48
2019-04-14T05:01:47.942Z,2.41
2019-04-14T05:02:48.721Z,2.45
2019-04-14T05:03:47.842Z,2.49
2019-04-14T05:04:48.521Z,2.48
2019-04-14T05:05:48.974Z,2.38
2019-04-14T05:06:48.541Z,2.41
2019-04-14T05:07:49.157Z,2.43
2019-04-14T05:08:48.212Z,2.4
2019-04-14T05:09:49.189Z,2.38
2019-04-14T05:10:48.255Z,2.37
2019-04-14T05:11:55.407Z,2.4
2019-04-14T05:12:48.108Z,2.41
2019-04-14T05:13:49.091Z,2.38
2019-04-14T05:14:48.150Z,2.3
2019-04-14T05:15:49.111Z,2.34
2019-04-14T05:16:48.708Z,2.34
2019-04-14T05:17:47.855Z,2.38
2019-04-14T05:18:48.814Z,2.38
2019-04-14T05:19:47.842Z,2.44
2019-04-14T05:20:48.952Z,2.45
2019-04-14T05:21:47.636Z,2.44
2019-04-14T05:22:48.848Z,2.45
2019-04-14T05:23:47.806Z,2.51
2019-04-14T05:24:48.790Z,2.55
2019-04-14T05:25:47.875Z,2.56
2019-04-14T05:26:48.672Z,2.59
2019-04-14T05:27:47.855Z,2.61
2019-04-14T05:28:48.578Z,2.62
2019-04-14T05:29:47.812Z,2.65
2019-04-14T05:30:48.488Z,2.71
2019-04-14T05:31:49.213Z,2.65
2019-04-14T05:32:48.088Z,2.71
2019-04-14T05:33:49.100Z,2.69
2019-04-14T05:34:50.356Z,2.72
2019-04-14T05:35:49.052Z,2.71
2019-04-14T05:36:47.997Z,2.68
2019-04-14T05:37:48.849Z,2.61
2019-04-14T05:38:47.935Z,2.56
2019-04-14T05:39:48.652Z,2.59
2019-04-14T05:40:47.839Z,2.58
2019-04-14T05:42:12.995Z,2.56
2019-04-14T05:42:47.785Z,2.59
2019-04-14T05:44:01.230Z,2.56
2019-04-14T05:44:47.816Z,2.52
2019-04-14T05:45:48.193Z,2.54
2019-04-14T05:46:47.834Z,2.54
2019-04-14T05:47:48.089Z,2.59
2019-04-14T05:48:47.798Z,2.64
2019-04-14T05:49:56.479Z,2.64
2019-04-14T05:50:49.138Z,2.58
2019-04-14T05:51:48.262Z,2.61
2019-04-14T05:52:47.779Z,2.58
2019-04-14T05:53:48.174Z,2.51
2019-04-14T05:54:47.761Z,2.49
2019-04-14T05:55:48.293Z,2.55
2019-04-14T05:56:47.823Z,2.48
2019-04-14T05:57:48.236Z,2.52
2019-04-14T05:58:47.779Z,2.52
2019-04-14T05:59:48.578Z,2.54
2019-04-14T06:00:47.852Z,2.52
2019-04-14T06:01:48.920Z,2.56
2019-04-14T06:02:48.700Z,2.59
2019-04-14T06:03:47.826Z,2.62
2019-04-14T06:04:48.330Z,2.54
2019-04-14T06:05:47.727Z,2.55
2019-04-14T06:06:47.809Z,2.49
2019-04-14T06:07:47.821Z,2.51
2019-04-14T06:08:47.767Z,2.51
2019-04-14T06:09:47.812Z,2.51
2019-04-14T06:10:47.773Z,2.58
2019-04-14T06:11:47.762Z,2.59
2019-04-14T06:12:47.795Z,2.59
2019-04-14T06:13:47.796Z,2.55
2019-04-14T06:14:47.806Z,2.56
2019-04-14T06:15:47.752Z,2.61
2019-04-14T06:16:47.820Z,2.59
2019-04-14T06:17:47.787Z,2.55
2019-04-14T06:18:47.765Z,2.55
2019-04-14T06:19:47.751Z,2.55
2019-04-14T06:20:47.754Z,2.56
2019-04-14T06:21:47.779Z,2.52
2019-04-14T06:22:47.957Z,2.55
2019-04-14T06:23:47.790Z,2.56
2019-04-14T06:24:47.712Z,2.61
2019-04-14T06:25:47.813Z,2.62
2019-04-14T06:26:47.721Z,2.62
2019-04-14T06:27:47.770Z,2.61
2019-04-14T06:28:47.748Z,2.56
2019-04-14T06:29:47.767Z,2.64
2019-04-14T06:30:47.948Z,2.66
2019-04-14T06:31:47.796Z,2.72
2019-04-14T06:32:47.724Z,2.64
2019-04-14T06:33:47.713Z,2.68
2019-04-14T06:34:47.763Z,2.71
2019-04-14T06:35:47.725Z,2.77
2019-04-14T06:36:47.714Z,2.69
2019-04-14T06:37:47.750Z,2.66
2019-04-14T06:38:47.694Z,2.69
2019-04-14T06:39:47.788Z,2.72
2019-04-14T06:40:47.754Z,2.77
2019-04-14T06:41:47.765Z,2.82
2019-04-14T06:42:47.734Z,2.76
2019-04-14T06:43:49.486Z,2.72
2019-04-14T06:44:47.732Z,2.77
2019-04-14T06:45:47.698Z,2.77
2019-04-14T06:46:47.740Z,2.73
2019-04-14T06:47:47.739Z,2.76
2019-04-14T06:48:47.762Z,2.84
2019-04-14T06:49:49.740Z,2.89
2019-04-14T06:50:47.728Z,2.96
2019-04-14T06:51:47.756Z,3
2019-04-14T06:52:48.010Z,3.08
2019-04-14T06:53:47.745Z,3.1
2019-04-14T06:54:47.677Z,3.14
2019-04-14T06:55:47.682Z,3.06
2019-04-14T06:56:47.728Z,3.12
2019-04-14T06:57:47.734Z,3.11
2019-04-14T06:58:47.758Z,3.15
2019-04-14T06:59:47.682Z,3.2
2019-04-14T07:00:47.684Z,3.25
2019-04-14T07:01:47.738Z,3.27
2019-04-14T07:02:48.247Z,3.27
2019-04-14T07:03:47.695Z,3.27
2019-04-14T07:04:47.684Z,3.24
2019-04-14T07:05:48.058Z,3.29
2019-04-14T07:06:47.668Z,3.31
2019-04-14T07:07:57.742Z,3.35
2019-04-14T07:08:47.741Z,3.37
2019-04-14T07:09:47.665Z,3.39
2019-04-14T07:10:47.843Z,3.38
2019-04-14T07:11:47.679Z,3.41
2019-04-14T07:12:47.651Z,3.42
2019-04-14T07:13:48.371Z,3.39
2019-04-14T07:14:47.691Z,3.39
2019-04-14T07:15:47.684Z,3.44
2019-04-14T07:16:47.684Z,3.46
2019-04-14T07:17:47.711Z,3.48
2019-04-14T07:18:47.670Z,3.54
2019-04-14T07:19:47.756Z,3.58
2019-04-14T07:20:47.630Z,3.59
2019-04-14T07:21:47.747Z,3.52
2019-04-14T07:22:47.678Z,3.49
2019-04-14T07:23:47.710Z,3.49
2019-04-14T07:24:47.699Z,3.49
2019-04-14T07:25:47.658Z,3.49
2019-04-14T07:26:47.783Z,3.51
2019-04-14T07:27:47.753Z,3.51
2019-04-14T07:28:57.239Z,3.56
2019-04-14T07:29:47.700Z,3.66
2019-04-14T07:30:47.627Z,3.69
2019-04-14T07:31:47.632Z,3.7
2019-04-14T07:32:47.764Z,3.67
2019-04-14T07:33:47.673Z,3.73
2019-04-14T07:34:47.654Z,3.82
2019-04-14T07:35:47.728Z,3.89
2019-04-14T07:36:47.631Z,3.83
2019-04-14T07:37:47.632Z,3.8
2019-04-14T07:38:47.658Z,3.77
2019-04-14T07:39:47.691Z,3.79
2019-04-14T07:40:47.840Z,3.86
2019-04-14T07:41:47.647Z,3.82
2019-04-14T07:42:47.699Z,3.82
2019-04-14T07:43:47.662Z,3.83
2019-04-14T07:44:47.614Z,3.8
2019-04-14T07:45:47.657Z,3.91
2019-04-14T07:46:47.639Z,3.86
2019-04-14T07:47:47.844Z,3.89
2019-04-14T07:48:47.793Z,3.96
2019-04-14T07:49:47.701Z,4.01
2019-04-14T07:50:47.597Z,4.01
2019-04-14T07:51:47.630Z,4.05
2019-04-14T07:52:47.670Z,4.1
2019-04-14T07:53:47.872Z,4.17
2019-04-14T07:54:47.605Z,4.08
2019-04-14T07:55:47.626Z,4.04
2019-04-14T07:56:47.629Z,4.07
2019-04-14T07:57:47.736Z,4.07
2019-04-14T07:58:47.614Z,4.11
2019-04-14T07:59:47.579Z,4.18
2019-04-14T08:00:47.568Z,4.19
2019-04-14T08:01:47.649Z,4.21
2019-04-14T08:02:47.605Z,4.24
2019-04-14T08:03:47.594Z,4.24
2019-04-14T08:04:47.667Z,4.28
2019-04-14T08:05:47.706Z,4.32
2019-04-14T08:06:47.636Z,4.35
2019-04-14T08:07:47.592Z,4.33
2019-04-14T08:08:47.573Z,4.36
2019-04-14T08:09:47.848Z,4.36
2019-04-14T08:10:47.589Z,4.4
2019-04-14T08:11:47.588Z,4.4
2019-04-14T08:12:47.614Z,4.42
2019-04-14T08:13:47.627Z,4.43
2019-04-14T08:14:47.544Z,4.45
2019-04-14T08:15:47.581Z,4.45
2019-04-14T08:16:47.622Z,4.43
2019-04-14T08:17:47.551Z,4.49
2019-04-14T08:18:47.641Z,4.51
2019-04-14T08:19:47.591Z,4.55
2019-04-14T08:20:47.547Z,4.52
2019-04-14T08:21:47.665Z,4.51
2019-04-14T08:22:47.872Z,4.49
2019-04-14T08:23:47.575Z,4.46
2019-04-14T08:24:47.543Z,4.52
2019-04-14T08:25:47.595Z,4.56
2019-04-14T08:26:47.688Z,4.62
2019-04-14T08:27:47.596Z,4.63
2019-04-14T08:28:47.548Z,4.66
2019-04-14T08:29:47.611Z,4.7
2019-04-14T08:30:47.587Z,4.79
2019-04-14T08:31:47.791Z,4.81
2019-04-14T08:32:47.620Z,4.83
2019-04-14T08:33:47.587Z,4.88
2019-04-14T08:34:47.527Z,4.91
2019-04-14T08:35:47.548Z,4.98
2019-04-14T08:36:47.618Z,5.02
2019-04-14T08:37:47.537Z,5
2019-04-14T08:38:50.416Z,5.02
2019-04-14T08:39:48.845Z,5.02
2019-04-14T08:40:47.630Z,5.07
2019-04-14T08:41:48.763Z,5.08
2019-04-14T08:42:47.540Z,5.12
2019-04-14T08:43:50.105Z,5.22
2019-04-14T08:44:48.716Z,5.26
2019-04-14T08:45:48.423Z,5.32
2019-04-14T08:46:49.030Z,5.33
2019-04-14T08:47:47.592Z,5.39
2019-04-14T08:48:47.533Z,5.4
2019-04-14T08:49:47.550Z,5.46
2019-04-14T08:50:47.620Z,5.36
2019-04-14T08:51:47.622Z,5.33
2019-04-14T08:52:48.134Z,5.29
2019-04-14T08:53:48.473Z,5.4
2019-04-14T08:54:47.503Z,5.49
2019-04-14T08:55:47.507Z,5.5
2019-04-14T08:56:47.488Z,5.53
2019-04-14T08:57:47.545Z,5.66
2019-04-14T08:58:47.519Z,5.74
2019-04-14T08:59:47.510Z,5.84
2019-04-14T09:00:47.576Z,5.83
2019-04-14T09:01:47.549Z,5.81
2019-04-14T09:02:47.643Z,5.74
2019-04-14T09:03:47.515Z,5.77
2019-04-14T09:04:47.578Z,5.75
2019-04-14T09:05:47.552Z,5.81
2019-04-14T09:06:47.559Z,5.83
2019-04-14T09:07:47.497Z,5.85
2019-04-14T09:08:47.799Z,5.92
2019-04-14T09:09:47.546Z,5.98
2019-04-14T09:10:47.469Z,6.11
2019-04-14T09:11:47.510Z,6.13
2019-04-14T09:13:48.489Z,6.08
2019-04-14T09:14:57.845Z,6.08
2019-04-14T09:15:48.477Z,6.18
2019-04-14T09:16:47.486Z,6.22
2019-04-14T09:17:47.553Z,6.28
2019-04-14T09:18:47.586Z,6.33
2019-04-14T09:19:48.461Z,6.36
2019-04-14T09:20:52.962Z,6.35
2019-04-14T09:21:47.478Z,6.3
2019-04-14T09:22:47.539Z,6.25
2019-04-14T09:23:47.616Z,6.32
2019-04-14T09:24:47.602Z,6.28
2019-04-14T09:25:48.378Z,6.32
2019-04-14T09:26:47.549Z,6.33
2019-04-14T09:27:47.618Z,6.43
2019-04-14T09:28:47.595Z,6.43
2019-04-14T09:29:47.546Z,6.53
2019-04-14T09:30:47.498Z,6.54
2019-04-14T09:31:47.478Z,6.5
2019-04-14T09:32:47.631Z,6.46
2019-04-14T09:33:48.328Z,6.5
2019-04-14T09:34:47.445Z,6.6
2019-04-14T09:35:47.508Z,6.67
2019-04-14T09:36:47.519Z,6.74
2019-04-14T09:37:47.457Z,6.74
2019-04-14T09:38:47.450Z,6.78
2019-04-14T09:39:47.501Z,6.81
2019-04-14T09:40:50.491Z,6.85
2019-04-14T09:41:47.546Z,6.92
2019-04-14T09:42:49.311Z,6.9
2019-04-14T09:43:47.542Z,6.9
2019-04-14T09:44:47.519Z,6.9
2019-04-14T09:45:50.685Z,6.91
2019-04-14T09:46:48.685Z,6.92
2019-04-14T09:47:47.451Z,6.94
2019-04-14T09:48:47.563Z,6.98
2019-04-14T09:49:47.466Z,7.01
2019-04-14T09:50:47.483Z,7.03
2019-04-14T09:51:50.351Z,7.08
2019-04-14T09:52:47.489Z,7.11
2019-04-14T09:53:47.524Z,7.13
2019-04-14T09:54:47.475Z,7.13
2019-04-14T09:55:47.628Z,7.15
2019-04-14T09:56:47.433Z,7.23
2019-04-14T09:57:47.488Z,7.33
2019-04-14T09:58:47.490Z,7.36
2019-04-14T09:59:47.429Z,7.4
2019-04-14T10:00:47.400Z,7.41
2019-04-14T10:01:47.389Z,7.43
2019-04-14T10:02:47.622Z,7.47
2019-04-14T10:03:47.668Z,7.53
2019-04-14T10:04:47.479Z,7.54
2019-04-14T10:05:47.891Z,7.59
2019-04-14T10:06:47.993Z,7.64
2019-04-14T10:07:48.954Z,7.64
2019-04-14T10:08:47.718Z,7.61
2019-04-14T10:09:47.615Z,7.67
2019-04-14T10:10:47.550Z,7.71
2019-04-14T10:11:56.248Z,7.85
2019-04-14T10:12:47.698Z,7.88
2019-04-14T10:13:47.720Z,7.93
2019-04-14T10:14:47.660Z,7.96
2019-04-14T10:15:47.553Z,8.01
2019-04-14T10:16:47.649Z,8.08
2019-04-14T10:17:47.602Z,8.12
2019-04-14T10:18:47.681Z,8.1
2019-04-14T10:19:50.376Z,8.13
2019-04-14T10:20:47.614Z,8.16
2019-04-14T10:21:47.397Z,8.23
2019-04-14T10:22:47.425Z,8.13
2019-04-14T10:23:47.630Z,8.09
2019-04-14T10:24:47.598Z,8.13
2019-04-14T10:25:47.493Z,8.1
2019-04-14T10:26:47.565Z,8.13
2019-04-14T10:27:47.414Z,8.2
2019-04-14T10:28:47.419Z,8.24
2019-04-14T10:29:47.540Z,8.27
2019-04-14T10:30:47.470Z,8.17
2019-04-14T10:31:47.428Z,8.12
2019-04-14T10:32:47.470Z,8.17
2019-04-14T10:33:47.374Z,8.21
2019-04-14T10:34:47.436Z,8.3
2019-04-14T10:35:47.457Z,8.36
2019-04-14T10:36:47.373Z,8.37
2019-04-14T10:37:47.521Z,8.43
2019-04-14T10:38:47.404Z,8.47
2019-04-14T10:39:47.420Z,8.52
2019-04-14T10:40:47.369Z,8.59
2019-04-14T10:41:47.413Z,8.59
2019-04-14T10:42:47.425Z,8.51
2019-04-14T10:43:47.352Z,8.52
2019-04-14T10:44:47.425Z,8.38
2019-04-14T10:45:47.353Z,8.43
2019-04-14T10:46:47.427Z,8.47
2019-04-14T10:47:47.417Z,8.48
2019-04-14T10:48:47.369Z,8.51
2019-04-14T10:49:47.397Z,8.61
2019-04-14T10:50:47.490Z,8.75
2019-04-14T10:51:47.621Z,8.86
2019-04-14T10:52:47.340Z,8.93
2019-04-14T10:53:47.438Z,8.98
2019-04-14T10:54:47.358Z,9.04
2019-04-14T10:55:47.449Z,8.95
2019-04-14T10:56:47.354Z,8.93
2019-04-14T10:57:47.331Z,9.04
2019-04-14T10:58:47.453Z,8.98
2019-04-14T10:59:47.465Z,8.95
2019-04-14T11:00:47.399Z,8.86
2019-04-14T11:01:47.350Z,9.03
2019-04-14T11:02:47.360Z,9.16
2019-04-14T11:03:47.415Z,9.27
2019-04-14T11:04:47.366Z,9.41
2019-04-14T11:05:48.209Z,9.57
2019-04-14T11:06:47.344Z,9.58
2019-04-14T11:07:47.347Z,9.68
2019-04-14T11:08:47.368Z,9.66
2019-04-14T11:09:47.330Z,9.73
2019-04-14T11:10:47.349Z,9.86
2019-04-14T11:11:47.377Z,10.19
2019-04-14T11:12:47.486Z,10.21
2019-04-14T11:13:47.328Z,10.11
2019-04-14T11:14:47.375Z,10
2019-04-14T11:15:47.464Z,9.92
2019-04-14T11:16:47.418Z,9.96
2019-04-14T11:17:53.124Z,9.9
2019-04-14T11:18:47.317Z,9.89
2019-04-14T11:19:47.324Z,9.93
2019-04-14T11:20:47.413Z,9.97
2019-04-14T11:21:47.359Z,10
2019-04-14T11:22:47.396Z,10.04
2019-04-14T11:23:47.364Z,9.93
2019-04-14T11:24:47.359Z,9.81
2019-04-14T11:25:47.314Z,9.69
2019-04-14T11:26:47.344Z,9.69
2019-04-14T11:27:47.314Z,9.58
2019-04-14T11:28:47.355Z,9.68
2019-04-14T11:29:47.392Z,9.85
2019-04-14T11:30:47.445Z,9.93
2019-04-14T11:31:47.323Z,10.02
2019-04-14T11:32:47.367Z,10.1
2019-04-14T11:33:47.581Z,10.11
2019-04-14T11:34:47.716Z,10.03
2019-04-14T11:35:47.365Z,10.04
2019-04-14T11:36:47.366Z,10.14
2019-04-14T11:37:47.301Z,10.19
2019-04-14T11:38:47.392Z,10.23
2019-04-14T11:39:47.305Z,9.97
2019-04-14T11:40:47.337Z,9.76
2019-04-14T11:41:47.311Z,9.73
2019-04-14T11:42:53.024Z,9.81
2019-04-14T11:43:47.358Z,9.78
2019-04-14T11:44:48.566Z,9.72
2019-04-14T11:45:47.321Z,9.47
2019-04-14T11:46:47.279Z,9.48
2019-04-14T11:47:47.300Z,9.65
2019-04-14T11:48:47.278Z,9.72
2019-04-14T11:49:47.411Z,9.86
2019-04-14T11:50:47.349Z,9.92
2019-04-14T11:51:55.947Z,9.94
2019-04-14T11:52:47.328Z,9.9
2019-04-14T11:53:47.271Z,9.99
2019-04-14T11:54:47.359Z,10
2019-04-14T11:55:47.459Z,9.9
2019-04-14T11:56:47.337Z,10
2019-04-14T11:57:47.367Z,10.03
2019-04-14T11:58:47.310Z,10.1
2019-04-14T11:59:47.412Z,10.06
2019-04-14T12:00:47.423Z,10.07
2019-04-14T12:01:47.348Z,10.16
2019-04-14T12:02:47.342Z,10.1
2019-04-14T12:03:47.321Z,10.11
2019-04-14T12:04:47.261Z,10.04
2019-04-14T12:05:47.301Z,10.14
2019-04-14T12:06:47.270Z,10.21
2019-04-14T12:07:47.275Z,10.17
2019-04-14T12:08:47.356Z,10.04
2019-04-14T12:09:47.256Z,10.06
2019-04-14T12:10:47.247Z,9.93
2019-04-14T12:11:47.246Z,9.92
2019-04-14T12:12:48.142Z,9.83
2019-04-14T12:13:47.266Z,9.81
2019-04-14T12:14:47.265Z,9.9
2019-04-14T12:15:47.305Z,10.03
2019-04-14T12:16:47.275Z,10.13
2019-04-14T12:17:47.317Z,10.16
2019-04-14T12:18:47.246Z,10.21
2019-04-14T12:19:47.241Z,10.2
2019-04-14T12:20:47.300Z,10.24
2019-04-14T12:21:47.225Z,10.23
2019-04-14T12:22:47.362Z,10.37
2019-04-14T12:23:47.262Z,10.41
2019-04-14T12:24:47.299Z,10.45
2019-04-14T12:25:47.277Z,10.58
2019-04-14T12:26:48.563Z,10.65
2019-04-14T12:27:47.297Z,10.62
2019-04-14T12:28:47.304Z,10.61
2019-04-14T12:29:48.072Z,10.62
2019-04-14T12:30:47.261Z,10.65
2019-04-14T12:31:47.255Z,10.68
2019-04-14T12:32:47.267Z,10.71
2019-04-14T12:33:47.255Z,10.68
2019-04-14T12:34:47.263Z,10.75
2019-04-14T12:35:47.248Z,10.75
2019-04-14T12:36:47.246Z,10.72
2019-04-14T12:37:47.251Z,10.78
2019-04-14T12:38:47.387Z,10.71
2019-04-14T12:39:47.415Z,10.75
2019-04-14T12:40:47.432Z,10.71
2019-04-14T12:41:47.288Z,10.78
2019-04-14T12:42:47.387Z,10.79
2019-04-14T12:43:47.305Z,10.8
2019-04-14T12:44:47.239Z,10.79
2019-04-14T12:45:47.211Z,10.82
2019-04-14T12:46:47.340Z,10.84
2019-04-14T12:47:47.228Z,10.83
2019-04-14T12:48:47.274Z,10.71
2019-04-14T12:49:47.250Z,10.72
2019-04-14T12:50:47.182Z,10.73
2019-04-14T12:51:47.300Z,10.83
2019-04-14T12:52:47.298Z,10.8
2019-04-14T12:53:47.190Z,10.8
2019-04-14T12:54:47.312Z,10.78
2019-04-14T12:55:47.251Z,10.66
2019-04-14T12:56:47.224Z,10.72
2019-04-14T12:57:47.196Z,10.75
2019-04-14T12:58:47.210Z,10.76
2019-04-14T12:59:47.261Z,10.86
2019-04-14T13:00:47.359Z,10.89
2019-04-14T13:01:48.841Z,10.82
2019-04-14T13:02:47.222Z,10.8
2019-04-14T13:03:47.180Z,10.73
2019-04-14T13:04:47.238Z,10.76
2019-04-14T13:05:47.196Z,10.79
2019-04-14T13:06:47.197Z,10.82
2019-04-14T13:07:47.191Z,10.87
2019-04-14T13:08:47.185Z,10.89
2019-04-14T13:09:47.223Z,10.89
2019-04-14T13:10:47.271Z,10.94
2019-04-14T13:11:47.208Z,11
2019-04-14T13:12:47.157Z,11.06
2019-04-14T13:13:47.157Z,11.08
2019-04-14T13:14:47.174Z,11.06
2019-04-14T13:15:47.286Z,11.04
2019-04-14T13:16:47.202Z,11.1
2019-04-14T13:17:47.163Z,11.15
2019-04-14T13:18:47.264Z,11.11
2019-04-14T13:19:47.184Z,11.11
2019-04-14T13:20:47.237Z,11.15
2019-04-14T13:21:47.181Z,11.14
2019-04-14T13:22:47.456Z,11.15
2019-04-14T13:23:47.159Z,11.18
2019-04-14T13:24:47.179Z,11.21
2019-04-14T13:25:47.199Z,11.27
2019-04-14T13:26:47.240Z,11.28
2019-04-14T13:27:47.245Z,11.3
2019-04-14T13:28:47.167Z,11.28
2019-04-14T13:29:47.157Z,11.34
2019-04-14T13:30:47.176Z,11.37
2019-04-14T13:31:47.158Z,11.38
2019-04-14T13:32:47.232Z,11.38
2019-04-14T13:33:47.172Z,11.41
2019-04-14T13:34:47.158Z,11.38
2019-04-14T13:35:47.231Z,11.38
2019-04-14T13:36:47.176Z,11.38
2019-04-14T13:37:47.197Z,11.39
2019-04-14T13:38:47.254Z,11.34
2019-04-14T13:39:47.144Z,11.32
2019-04-14T13:40:47.243Z,11.37
2019-04-14T13:41:47.145Z,11.28
2019-04-14T13:42:47.188Z,11.22
2019-04-14T13:43:47.236Z,11.22
2019-04-14T13:44:47.462Z,11.15
2019-04-14T13:45:47.151Z,11.18
2019-04-14T13:46:47.182Z,11.2
2019-04-14T13:47:48.410Z,11.21
2019-04-14T13:48:47.148Z,11.3
2019-04-14T13:49:47.251Z,11.27